sensor_id;sensor_type;location;lat;lon;timestamp;pressure;altitude;pressure_sealevel;temperature;humidity
63190;BME280;49286;44.460;26.114;2023-07-13T00:01:54;100491.25;;;23.25;100.00
63190;BME280;49286;44.460;26.114;2023-07-13T00:04:23;100516.75;;;23.15;100.00
63190;BME280;49286;44.460;26.114;2023-07-13T00:06:50;100528.50;;;23.30;100.00
63190;BME280;49286;44.460;26.114;2023-07-13T00:09:17;100401.72;;;22.79;100.00
63190;BME280;49286;44.460;26.114;2023-07-13T00:11:43;100406.06;;;22.99;100.00
63190;BME280;49286;44.460;26.114;2023-07-13T00:14:10;100472.16;;;23.31;100.00
63190;BME280;49286;44.460;26.114;2023-07-13T00:16:37;100503.69;;;23.44;100.00
63190;BME280;49286;44.460;26.114;2023-07-13T00:19:04;100424.47;;;23.05;100.00
63190;BME280;49286;44.460;26.114;2023-07-13T00:21:30;100486.84;;;23.42;100.00
63190;BME280;49286;44.460;26.114;2023-07-13T00:23:56;100483.38;;;23.39;100.00
63190;BME280;49286;44.460;26.114;2023-07-13T00:26:21;100409.03;;;23.10;100.00
63190;BME280;49286;44.460;26.114;2023-07-13T00:28:47;100394.63;;;22.95;100.00
63190;BME280;49286;44.460;26.114;2023-07-13T00:31:13;100482.09;;;23.47;100.00
63190;BME280;49286;44.460;26.114;2023-07-13T00:33:42;100395.31;;;22.81;100.00
63190;BME280;49286;44.460;26.114;2023-07-13T00:36:08;100426.63;;;22.96;100.00
63190;BME280;49286;44.460;26.114;2023-07-13T00:38:34;100461.31;;;23.00;100.00
63190;BME280;49286;44.460;26.114;2023-07-13T00:41:00;100486.09;;;23.03;100.00
63190;BME280;49286;44.460;26.114;2023-07-13T00:43:27;100444.88;;;22.71;100.00
63190;BME280;49286;44.460;26.114;2023-07-13T00:48:20;100496.16;;;22.98;100.00
63190;BME280;49286;44.460;26.114;2023-07-13T00:50:50;100461.44;;;22.96;100.00
63190;BME280;49286;44.460;26.114;2023-07-13T00:53:18;100480.19;;;23.31;100.00
63190;BME280;49286;44.460;26.114;2023-07-13T00:55:51;100475.19;;;23.25;100.00
63190;BME280;49286;44.460;26.114;2023-07-13T00:58:19;100439.09;;;22.97;100.00
63190;BME280;49286;44.460;26.114;2023-07-13T01:00:46;100470.22;;;23.17;100.00
63190;BME280;49286;44.460;26.114;2023-07-13T01:03:12;100442.69;;;22.79;100.00
63190;BME280;49286;44.460;26.114;2023-07-13T01:05:37;100507.75;;;22.99;100.00
63190;BME280;49286;44.460;26.114;2023-07-13T01:08:04;100420.31;;;22.45;100.00
63190;BME280;49286;44.460;26.114;2023-07-13T01:10:30;100439.56;;;22.52;100.00
63190;BME280;49286;44.460;26.114;2023-07-13T01:13:05;100512.50;;;22.92;100.00
63190;BME280;49286;44.460;26.114;2023-07-13T01:15:41;100500.47;;;22.83;100.00
63190;BME280;49286;44.460;26.114;2023-07-13T01:18:10;100535.59;;;22.94;100.00
63190;BME280;49286;44.460;26.114;2023-07-13T01:20:37;100370.94;;;21.97;100.00
63190;BME280;49286;44.460;26.114;2023-07-13T01:23:07;100513.28;;;22.76;100.00
63190;BME280;49286;44.460;26.114;2023-07-13T01:25:34;100455.31;;;22.41;100.00
63190;BME280;49286;44.460;26.114;2023-07-13T01:28:01;100441.41;;;22.32;100.00
63190;BME280;49286;44.460;26.114;2023-07-13T01:30:27;100441.56;;;22.29;100.00
63190;BME280;49286;44.460;26.114;2023-07-13T01:32:53;100446.75;;;22.32;100.00
63190;BME280;49286;44.460;26.114;2023-07-13T01:35:18;100460.56;;;22.42;100.00
63190;BME280;49286;44.460;26.114;2023-07-13T01:37:43;100439.59;;;22.33;100.00
63190;BME280;49286;44.460;26.114;2023-07-13T01:40:10;100421.53;;;22.19;100.00
63190;BME280;49286;44.460;26.114;2023-07-13T01:42:37;100511.75;;;22.71;100.00
63190;BME280;49286;44.460;26.114;2023-07-13T01:45:03;100483.03;;;22.57;100.00
63190;BME280;49286;44.460;26.114;2023-07-13T01:47:29;100475.59;;;22.45;100.00
63190;BME280;49286;44.460;26.114;2023-07-13T01:49:56;100490.97;;;22.59;100.00
63190;BME280;49286;44.460;26.114;2023-07-13T01:52:21;100495.59;;;22.55;100.00
63190;BME280;49286;44.460;26.114;2023-07-13T01:54:47;100474.28;;;22.53;100.00
63190;BME280;49286;44.460;26.114;2023-07-13T01:57:12;100416.72;;;22.27;100.00
63190;BME280;49286;44.460;26.114;2023-07-13T01:59:38;100403.72;;;22.20;100.00
63190;BME280;49286;44.460;26.114;2023-07-13T02:02:04;100418.84;;;22.19;100.00
63190;BME280;49286;44.460;26.114;2023-07-13T02:04:29;100448.44;;;22.35;100.00
63190;BME280;49286;44.460;26.114;2023-07-13T02:06:54;100439.97;;;22.25;100.00
63190;BME280;49286;44.460;26.114;2023-07-13T02:09:21;100433.97;;;22.20;100.00
63190;BME280;49286;44.460;26.114;2023-07-13T02:11:46;100512.72;;;22.70;100.00
63190;BME280;49286;44.460;26.114;2023-07-13T02:14:12;100428.06;;;22.32;100.00
63190;BME280;49286;44.460;26.114;2023-07-13T02:16:37;100504.63;;;22.89;100.00
63190;BME280;49286;44.460;26.114;2023-07-13T02:19:02;100504.88;;;22.84;100.00
63190;BME280;49286;44.460;26.114;2023-07-13T02:21:28;100378.28;;;22.11;100.00
63190;BME280;49286;44.460;26.114;2023-07-13T02:23:54;100504.22;;;22.79;100.00
63190;BME280;49286;44.460;26.114;2023-07-13T02:26:20;100417.06;;;22.20;100.00
63190;BME280;49286;44.460;26.114;2023-07-13T02:28:45;100482.72;;;22.63;100.00
63190;BME280;49286;44.460;26.114;2023-07-13T02:31:13;100515.56;;;22.84;100.00
63190;BME280;49286;44.460;26.114;2023-07-13T02:33:39;100400.69;;;22.27;100.00
63190;BME280;49286;44.460;26.114;2023-07-13T02:36:05;100505.50;;;22.89;100.00
63190;BME280;49286;44.460;26.114;2023-07-13T02:38:32;100461.81;;;22.71;100.00
63190;BME280;49286;44.460;26.114;2023-07-13T02:40:59;100471.34;;;22.77;100.00
63190;BME280;49286;44.460;26.114;2023-07-13T02:43:25;100494.78;;;22.89;100.00
63190;BME280;49286;44.460;26.114;2023-07-13T02:45:51;100400.22;;;22.37;100.00
63190;BME280;49286;44.460;26.114;2023-07-13T02:48:17;100322.91;;;21.96;100.00
63190;BME280;49286;44.460;26.114;2023-07-13T02:50:44;100484.19;;;22.88;100.00
63190;BME280;49286;44.460;26.114;2023-07-13T02:53:09;100430.00;;;22.65;100.00
63190;BME280;49286;44.460;26.114;2023-07-13T02:55:35;100466.16;;;22.91;100.00
63190;BME280;49286;44.460;26.114;2023-07-13T02:58:00;100351.78;;;22.25;100.00
63190;BME280;49286;44.460;26.114;2023-07-13T03:00:26;100372.41;;;22.41;100.00
63190;BME280;49286;44.460;26.114;2023-07-13T03:02:53;100435.38;;;22.83;100.00
63190;BME280;49286;44.460;26.114;2023-07-13T03:05:18;100323.97;;;22.10;100.00
63190;BME280;49286;44.460;26.114;2023-07-13T03:07:44;100450.97;;;22.92;100.00
63190;BME280;49286;44.460;26.114;2023-07-13T03:10:09;100380.66;;;22.53;100.00
63190;BME280;49286;44.460;26.114;2023-07-13T03:12:35;100441.59;;;22.83;100.00
63190;BME280;49286;44.460;26.114;2023-07-13T03:15:01;100370.38;;;22.46;100.00
63190;BME280;49286;44.460;26.114;2023-07-13T03:17:26;100458.22;;;22.90;100.00
63190;BME280;49286;44.460;26.114;2023-07-13T03:19:52;100384.03;;;22.40;100.00
63190;BME280;49286;44.460;26.114;2023-07-13T03:22:18;100455.75;;;23.04;100.00
63190;BME280;49286;44.460;26.114;2023-07-13T03:24:44;100424.78;;;22.99;100.00
63190;BME280;49286;44.460;26.114;2023-07-13T03:27:09;100388.09;;;22.83;100.00
63190;BME280;49286;44.460;26.114;2023-07-13T03:29:35;100362.19;;;22.66;100.00
63190;BME280;49286;44.460;26.114;2023-07-13T03:32:00;100359.19;;;22.72;100.00
63190;BME280;49286;44.460;26.114;2023-07-13T03:34:26;100451.94;;;23.26;100.00
63190;BME280;49286;44.460;26.114;2023-07-13T03:36:55;100370.47;;;22.79;100.00
63190;BME280;49286;44.460;26.114;2023-07-13T03:39:21;100360.06;;;22.73;100.00
63190;BME280;49286;44.460;26.114;2023-07-13T03:41:47;100456.22;;;23.30;100.00
63190;BME280;49286;44.460;26.114;2023-07-13T03:44:13;100449.19;;;23.27;100.00
63190;BME280;49286;44.460;26.114;2023-07-13T03:46:38;100469.19;;;23.37;100.00
63190;BME280;49286;44.460;26.114;2023-07-13T03:49:04;100463.59;;;23.42;100.00
63190;BME280;49286;44.460;26.114;2023-07-13T03:51:30;100390.84;;;22.99;100.00
63190;BME280;49286;44.460;26.114;2023-07-13T03:53:56;100218.47;;;22.00;100.00
63190;BME280;49286;44.460;26.114;2023-07-13T03:56:22;100422.25;;;23.30;100.00
63190;BME280;49286;44.460;26.114;2023-07-13T03:58:49;100435.31;;;23.36;100.00
63190;BME280;49286;44.460;26.114;2023-07-13T04:01:17;100377.72;;;23.12;100.00
63190;BME280;49286;44.460;26.114;2023-07-13T04:03:43;100297.91;;;22.68;100.00
63190;BME280;49286;44.460;26.114;2023-07-13T04:06:23;100437.09;;;23.53;100.00
63190;BME280;49286;44.460;26.114;2023-07-13T04:08:52;100371.88;;;23.21;100.00
63190;BME280;49286;44.460;26.114;2023-07-13T04:11:19;100395.47;;;23.30;100.00
63190;BME280;49286;44.460;26.114;2023-07-13T04:13:46;100437.28;;;23.66;100.00
63190;BME280;49286;44.460;26.114;2023-07-13T04:16:13;100401.38;;;23.53;100.00
63190;BME280;49286;44.460;26.114;2023-07-13T04:18:38;100370.16;;;23.36;100.00
63190;BME280;49286;44.460;26.114;2023-07-13T04:21:04;100413.97;;;23.68;100.00
63190;BME280;49286;44.460;26.114;2023-07-13T04:23:29;100432.00;;;23.82;100.00
63190;BME280;49286;44.460;26.114;2023-07-13T04:25:55;100371.69;;;23.57;100.00
63190;BME280;49286;44.460;26.114;2023-07-13T04:28:22;100382.13;;;23.62;100.00
63190;BME280;49286;44.460;26.114;2023-07-13T04:30:48;100465.75;;;24.18;100.00
63190;BME280;49286;44.460;26.114;2023-07-13T04:33:13;100392.91;;;23.78;100.00
63190;BME280;49286;44.460;26.114;2023-07-13T04:35:38;100436.97;;;24.06;100.00
63190;BME280;49286;44.460;26.114;2023-07-13T04:38:04;100379.25;;;23.83;100.00
63190;BME280;49286;44.460;26.114;2023-07-13T04:40:30;100463.63;;;24.40;100.00
63190;BME280;49286;44.460;26.114;2023-07-13T04:42:55;100447.78;;;24.36;100.00
63190;BME280;49286;44.460;26.114;2023-07-13T04:45:21;100390.41;;;24.07;100.00
63190;BME280;49286;44.460;26.114;2023-07-13T04:47:49;100377.97;;;23.90;100.00
63190;BME280;49286;44.460;26.114;2023-07-13T04:50:15;100469.78;;;24.58;100.00
63190;BME280;49286;44.460;26.114;2023-07-13T04:52:44;100469.84;;;24.73;100.00
63190;BME280;49286;44.460;26.114;2023-07-13T04:55:10;100470.63;;;24.75;100.00
63190;BME280;49286;44.460;26.114;2023-07-13T04:57:35;100437.22;;;24.64;100.00
63190;BME280;49286;44.460;26.114;2023-07-13T05:00:01;100410.56;;;24.61;100.00
63190;BME280;49286;44.460;26.114;2023-07-13T05:02:32;100459.13;;;25.03;100.00
63190;BME280;49286;44.460;26.114;2023-07-13T05:04:58;100369.91;;;24.53;100.00
63190;BME280;49286;44.460;26.114;2023-07-13T05:07:25;100465.34;;;25.19;100.00
63190;BME280;49286;44.460;26.114;2023-07-13T05:09:51;100425.59;;;25.10;100.00
63190;BME280;49286;44.460;26.114;2023-07-13T05:12:16;100357.09;;;25.03;100.00
63190;BME280;49286;44.460;26.114;2023-07-13T05:14:42;100446.97;;;25.85;100.00
63190;BME280;49286;44.460;26.114;2023-07-13T05:17:08;100437.31;;;25.97;100.00
63190;BME280;49286;44.460;26.114;2023-07-13T05:19:33;100454.84;;;26.58;100.00
63190;BME280;49286;44.460;26.114;2023-07-13T05:21:59;100437.47;;;26.77;100.00
63190;BME280;49286;44.460;26.114;2023-07-13T05:24:25;100384.03;;;26.70;100.00
63190;BME280;49286;44.460;26.114;2023-07-13T05:26:50;100438.91;;;27.35;100.00
63190;BME280;49286;44.460;26.114;2023-07-13T05:29:16;100363.50;;;26.82;100.00
63190;BME280;49286;44.460;26.114;2023-07-13T05:31:41;100451.50;;;27.98;100.00
63190;BME280;49286;44.460;26.114;2023-07-13T05:34:07;100442.41;;;28.49;100.00
63190;BME280;49286;44.460;26.114;2023-07-13T05:36:32;100446.38;;;28.80;100.00
63190;BME280;49286;44.460;26.114;2023-07-13T05:38:58;100375.22;;;28.45;100.00
63190;BME280;49286;44.460;26.114;2023-07-13T05:41:23;100395.06;;;28.80;100.00
63190;BME280;49286;44.460;26.114;2023-07-13T05:43:49;100437.81;;;29.11;100.00
63190;BME280;49286;44.460;26.114;2023-07-13T05:46:14;100445.72;;;29.59;100.00
63190;BME280;49286;44.460;26.114;2023-07-13T05:48:39;100435.22;;;29.67;100.00
63190;BME280;49286;44.460;26.114;2023-07-13T05:51:06;100459.53;;;30.12;100.00
63190;BME280;49286;44.460;26.114;2023-07-13T05:53:31;100460.16;;;30.27;100.00
63190;BME280;49286;44.460;26.114;2023-07-13T05:55:57;100441.31;;;30.25;100.00
63190;BME280;49286;44.460;26.114;2023-07-13T05:58:22;100471.31;;;30.56;100.00
63190;BME280;49286;44.460;26.114;2023-07-13T06:00:48;100475.03;;;30.76;100.00
63190;BME280;49286;44.460;26.114;2023-07-13T06:03:23;100463.47;;;30.74;100.00
63190;BME280;49286;44.460;26.114;2023-07-13T06:05:48;100469.22;;;30.92;100.00
63190;BME280;49286;44.460;26.114;2023-07-13T06:08:14;100400.41;;;30.51;100.00
63190;BME280;49286;44.460;26.114;2023-07-13T06:10:39;100472.22;;;31.10;100.00
63190;BME280;49286;44.460;26.114;2023-07-13T06:13:04;100380.44;;;30.52;100.00
63190;BME280;49286;44.460;26.114;2023-07-13T06:15:30;100473.09;;;31.10;100.00
63190;BME280;49286;44.460;26.114;2023-07-13T06:17:55;100396.72;;;30.73;100.00
63190;BME280;49286;44.460;26.114;2023-07-13T06:20:21;100468.84;;;31.18;100.00
63190;BME280;49286;44.460;26.114;2023-07-13T06:22:46;100407.38;;;30.65;100.00
63190;BME280;49286;44.460;26.114;2023-07-13T06:25:12;100406.25;;;30.67;100.00
63190;BME280;49286;44.460;26.114;2023-07-13T06:27:37;100404.94;;;30.50;100.00
63190;BME280;49286;44.460;26.114;2023-07-13T06:30:03;100415.25;;;30.68;100.00
63190;BME280;49286;44.460;26.114;2023-07-13T06:32:28;100419.81;;;30.67;100.00
63190;BME280;49286;44.460;26.114;2023-07-13T06:34:54;100349.50;;;30.22;100.00
63190;BME280;49286;44.460;26.114;2023-07-13T06:37:19;100467.66;;;30.35;100.00
63190;BME280;49286;44.460;26.114;2023-07-13T06:39:44;100466.41;;;30.94;100.00
63190;BME280;49286;44.460;26.114;2023-07-13T06:42:10;100472.19;;;31.21;100.00
63190;BME280;49286;44.460;26.114;2023-07-13T06:44:36;100474.78;;;31.11;100.00
63190;BME280;49286;44.460;26.114;2023-07-13T06:47:03;100409.22;;;30.97;100.00
63190;BME280;49286;44.460;26.114;2023-07-13T06:49:29;100476.41;;;31.56;100.00
63190;BME280;49286;44.460;26.114;2023-07-13T06:51:54;100455.13;;;31.30;100.00
63190;BME280;49286;44.460;26.114;2023-07-13T06:54:20;100469.53;;;31.31;100.00
63190;BME280;49286;44.460;26.114;2023-07-13T06:56:45;100398.94;;;30.79;100.00
63190;BME280;49286;44.460;26.114;2023-07-13T06:59:11;100421.56;;;30.89;100.00
63190;BME280;49286;44.460;26.114;2023-07-13T07:01:36;100427.06;;;31.20;100.00
63190;BME280;49286;44.460;26.114;2023-07-13T07:04:03;100479.31;;;31.64;100.00
63190;BME280;49286;44.460;26.114;2023-07-13T07:06:28;100443.06;;;31.44;100.00
63190;BME280;49286;44.460;26.114;2023-07-13T07:08:54;100474.28;;;31.90;100.00
63190;BME280;49286;44.460;26.114;2023-07-13T07:11:22;100401.34;;;30.94;100.00
63190;BME280;49286;44.460;26.114;2023-07-13T07:13:49;100455.22;;;30.76;100.00
63190;BME280;49286;44.460;26.114;2023-07-13T07:16:15;100440.34;;;30.70;100.00
63190;BME280;49286;44.460;26.114;2023-07-13T07:18:41;100452.97;;;31.13;100.00
63190;BME280;49286;44.460;26.114;2023-07-13T07:21:07;100384.25;;;30.82;100.00
63190;BME280;49286;44.460;26.114;2023-07-13T07:23:33;100443.28;;;31.52;100.00
63190;BME280;49286;44.460;26.114;2023-07-13T07:25:58;100403.44;;;31.53;100.00
63190;BME280;49286;44.460;26.114;2023-07-13T07:28:24;100398.69;;;31.24;100.00
63190;BME280;49286;44.460;26.114;2023-07-13T07:30:52;100444.94;;;31.74;100.00
63190;BME280;49286;44.460;26.114;2023-07-13T07:33:18;100369.66;;;31.15;100.00
63190;BME280;49286;44.460;26.114;2023-07-13T07:35:44;100444.03;;;31.95;100.00
63190;BME280;49286;44.460;26.114;2023-07-13T07:38:09;100369.22;;;31.62;100.00
63190;BME280;49286;44.460;26.114;2023-07-13T07:40:39;100444.13;;;32.14;100.00
63190;BME280;49286;44.460;26.114;2023-07-13T07:43:06;100437.41;;;32.09;100.00
63190;BME280;49286;44.460;26.114;2023-07-13T07:45:32;100429.88;;;32.22;100.00
63190;BME280;49286;44.460;26.114;2023-07-13T07:47:58;100368.44;;;31.90;100.00
63190;BME280;49286;44.460;26.114;2023-07-13T07:50:28;100392.38;;;32.06;100.00
63190;BME280;49286;44.460;26.114;2023-07-13T07:52:54;100436.16;;;32.23;98.81
63190;BME280;49286;44.460;26.114;2023-07-13T07:55:24;100372.59;;;31.94;100.00
63190;BME280;49286;44.460;26.114;2023-07-13T07:57:51;100430.44;;;32.35;100.00
63190;BME280;49286;44.460;26.114;2023-07-13T08:00:16;100385.84;;;32.28;100.00
63190;BME280;49286;44.460;26.114;2023-07-13T08:02:43;100445.47;;;32.49;94.87
63190;BME280;49286;44.460;26.114;2023-07-13T08:05:09;100472.44;;;32.62;100.00
63190;BME280;49286;44.460;26.114;2023-07-13T08:07:38;100388.56;;;32.38;100.00
63190;BME280;49286;44.460;26.114;2023-07-13T08:10:08;100413.63;;;32.61;100.00
63190;BME280;49286;44.460;26.114;2023-07-13T08:12:35;100449.41;;;33.15;100.00
63190;BME280;49286;44.460;26.114;2023-07-13T08:15:02;100321.22;;;32.42;100.00
63190;BME280;49286;44.460;26.114;2023-07-13T08:17:28;100449.38;;;33.34;97.79
63190;BME280;49286;44.460;26.114;2023-07-13T08:19:53;100376.72;;;33.07;100.00
63190;BME280;49286;44.460;26.114;2023-07-13T08:22:19;100422.31;;;33.04;100.00
63190;BME280;49286;44.460;26.114;2023-07-13T08:24:44;100370.44;;;32.68;100.00
63190;BME280;49286;44.460;26.114;2023-07-13T08:27:10;100444.13;;;33.13;100.00
63190;BME280;49286;44.460;26.114;2023-07-13T08:29:37;100450.25;;;33.15;100.00
63190;BME280;49286;44.460;26.114;2023-07-13T08:32:02;100377.72;;;33.06;100.00
63190;BME280;49286;44.460;26.114;2023-07-13T08:34:28;100390.16;;;33.56;96.82
63190;BME280;49286;44.460;26.114;2023-07-13T08:36:53;100426.16;;;32.43;97.14
63190;BME280;49286;44.460;26.114;2023-07-13T08:39:19;100376.31;;;32.53;98.44
63190;BME280;49286;44.460;26.114;2023-07-13T08:41:51;100418.09;;;33.48;99.98
63190;BME280;49286;44.460;26.114;2023-07-13T08:44:30;100420.09;;;33.66;89.67
63190;BME280;49286;44.460;26.114;2023-07-13T08:47:02;100367.53;;;33.18;88.63
63190;BME280;49286;44.460;26.114;2023-07-13T08:49:28;100440.75;;;34.23;91.51
63190;BME280;49286;44.460;26.114;2023-07-13T08:51:58;100438.03;;;34.23;88.21
63190;BME280;49286;44.460;26.114;2023-07-13T08:56:55;100417.59;;;34.37;81.49
63190;BME280;49286;44.460;26.114;2023-07-13T08:59:26;100371.31;;;34.81;82.49
63190;BME280;49286;44.460;26.114;2023-07-13T09:02:00;100422.81;;;33.66;82.92
63190;BME280;49286;44.460;26.114;2023-07-13T09:04:45;100427.94;;;35.05;80.71
63190;BME280;49286;44.460;26.114;2023-07-13T09:10:14;100436.09;;;35.23;75.65
63190;BME280;49286;44.460;26.114;2023-07-13T09:12:50;100435.91;;;35.43;76.94
63190;BME280;49286;44.460;26.114;2023-07-13T09:17:51;100417.25;;;35.99;70.07
63190;BME280;49286;44.460;26.114;2023-07-13T09:23:10;100397.22;;;35.82;63.65
63190;BME280;49286;44.460;26.114;2023-07-13T09:25:38;100379.84;;;35.83;65.02
63190;BME280;49286;44.460;26.114;2023-07-13T09:28:12;100427.63;;;35.53;62.83
63190;BME280;49286;44.460;26.114;2023-07-13T09:33:21;100374.19;;;35.76;63.36
63190;BME280;49286;44.460;26.114;2023-07-13T09:35:48;100415.22;;;36.51;59.61
63190;BME280;49286;44.460;26.114;2023-07-13T09:38:17;100428.88;;;36.51;60.24
63190;BME280;49286;44.460;26.114;2023-07-13T09:40:56;100434.00;;;36.46;62.52
63190;BME280;49286;44.460;26.114;2023-07-13T09:43:25;100361.25;;;36.62;62.03
63190;BME280;49286;44.460;26.114;2023-07-13T09:45:51;100341.25;;;35.43;62.69
63190;BME280;49286;44.460;26.114;2023-07-13T09:48:17;100410.31;;;36.63;62.64
63190;BME280;49286;44.460;26.114;2023-07-13T09:50:44;100406.03;;;36.61;59.73
63190;BME280;49286;44.460;26.114;2023-07-13T09:53:17;100416.81;;;36.62;57.68
63190;BME280;49286;44.460;26.114;2023-07-13T09:55:45;100366.56;;;36.63;53.46
63190;BME280;49286;44.460;26.114;2023-07-13T09:58:17;100362.09;;;36.87;56.52
63190;BME280;49286;44.460;26.114;2023-07-13T10:01:03;100427.81;;;37.75;53.59
63190;BME280;49286;44.460;26.114;2023-07-13T10:03:32;100356.34;;;36.06;57.50
63190;BME280;49286;44.460;26.114;2023-07-13T10:06:15;100367.56;;;36.87;58.40
63190;BME280;49286;44.460;26.114;2023-07-13T10:08:41;100388.84;;;37.57;58.01
63190;BME280;49286;44.460;26.114;2023-07-13T10:11:14;100418.31;;;37.94;58.13
63190;BME280;49286;44.460;26.114;2023-07-13T10:13:53;100403.13;;;36.95;58.83
63190;BME280;49286;44.460;26.114;2023-07-13T10:16:21;100418.09;;;38.12;57.45
63190;BME280;49286;44.460;26.114;2023-07-13T10:18:57;100427.03;;;38.06;53.70
63190;BME280;49286;44.460;26.114;2023-07-13T10:21:34;100353.91;;;37.98;48.14
63190;BME280;49286;44.460;26.114;2023-07-13T10:24:19;100376.34;;;38.56;47.10
63190;BME280;49286;44.460;26.114;2023-07-13T10:26:56;100400.25;;;38.71;48.60
63190;BME280;49286;44.460;26.114;2023-07-13T10:29:24;100400.97;;;38.64;49.67
63190;BME280;49286;44.460;26.114;2023-07-13T10:31:51;100340.72;;;36.98;49.28
63190;BME280;49286;44.460;26.114;2023-07-13T10:34:17;100321.97;;;37.83;49.45
63190;BME280;49286;44.460;26.114;2023-07-13T10:36:47;100377.75;;;37.90;47.60
63190;BME280;49286;44.460;26.114;2023-07-13T10:39:20;100375.97;;;38.82;46.28
63190;BME280;49286;44.460;26.114;2023-07-13T10:41:52;100336.06;;;37.79;45.92
63190;BME280;49286;44.460;26.114;2023-07-13T10:44:23;100360.78;;;37.94;47.73
63190;BME280;49286;44.460;26.114;2023-07-13T10:46:53;100341.44;;;38.50;45.90
63190;BME280;49286;44.460;26.114;2023-07-13T10:49:20;100288.97;;;37.76;45.90
63190;BME280;49286;44.460;26.114;2023-07-13T10:51:46;100326.06;;;37.87;45.63
63190;BME280;49286;44.460;26.114;2023-07-13T10:56:44;100350.09;;;39.00;44.36
63190;BME280;49286;44.460;26.114;2023-07-13T10:59:27;100351.38;;;38.89;43.21
63190;BME280;49286;44.460;26.114;2023-07-13T11:04:29;100319.66;;;39.24;42.45
63190;BME280;49286;44.460;26.114;2023-07-13T11:07:51;100330.34;;;39.04;40.50
63190;BME280;49286;44.460;26.114;2023-07-13T11:10:04;100319.56;;;37.56;41.11
63190;BME280;49286;44.460;26.114;2023-07-13T11:12:53;100318.75;;;38.10;42.16
63190;BME280;49286;44.460;26.114;2023-07-13T11:15:44;100241.69;;;38.28;42.09
63190;BME280;49286;44.460;26.114;2023-07-13T11:18:22;100238.31;;;38.79;43.18
63190;BME280;49286;44.460;26.114;2023-07-13T11:20:48;100252.81;;;39.02;42.12
63190;BME280;49286;44.460;26.114;2023-07-13T11:25:43;100253.53;;;38.06;40.61
63190;BME280;49286;44.460;26.114;2023-07-13T11:30:43;100249.19;;;38.34;40.91
63190;BME280;49286;44.460;26.114;2023-07-13T11:33:49;100301.44;;;38.33;42.21
63190;BME280;49286;44.460;26.114;2023-07-13T11:38:51;100302.25;;;37.87;43.78
63190;BME280;49286;44.460;26.114;2023-07-13T11:41:28;100234.28;;;37.28;45.37
63190;BME280;49286;44.460;26.114;2023-07-13T11:44:05;100224.75;;;37.78;46.61
63190;BME280;49286;44.460;26.114;2023-07-13T11:46:31;100214.22;;;36.88;46.67
63190;BME280;49286;44.460;26.114;2023-07-13T11:48:56;100217.16;;;37.89;46.96
63190;BME280;49286;44.460;26.114;2023-07-13T11:51:33;100201.91;;;38.32;44.53
63190;BME280;49286;44.460;26.114;2023-07-13T11:54:04;100291.09;;;38.81;44.20
63190;BME280;49286;44.460;26.114;2023-07-13T11:56:31;100304.22;;;39.09;44.33
63190;BME280;49286;44.460;26.114;2023-07-13T11:59:04;100224.44;;;38.42;41.68
63190;BME280;49286;44.460;26.114;2023-07-13T12:01:32;100229.34;;;38.09;42.32
63190;BME280;49286;44.460;26.114;2023-07-13T12:04:02;100285.78;;;38.79;42.22
63190;BME280;49286;44.460;26.114;2023-07-13T12:06:33;100225.59;;;37.56;41.98
63190;BME280;49286;44.460;26.114;2023-07-13T12:09:08;100267.53;;;38.11;43.02
63190;BME280;49286;44.460;26.114;2023-07-13T12:11:40;100274.13;;;38.48;43.24
63190;BME280;49286;44.460;26.114;2023-07-13T12:14:14;100211.91;;;37.48;45.52
63190;BME280;49286;44.460;26.114;2023-07-13T12:16:40;100198.25;;;37.08;44.16
63190;BME280;49286;44.460;26.114;2023-07-13T12:19:20;100275.47;;;37.97;43.93
63190;BME280;49286;44.460;26.114;2023-07-13T12:21:46;100250.25;;;38.10;44.35
63190;BME280;49286;44.460;26.114;2023-07-13T12:24:17;100283.34;;;38.23;43.42
63190;BME280;49286;44.460;26.114;2023-07-13T12:26:44;100261.09;;;38.04;43.58
63190;BME280;49286;44.460;26.114;2023-07-13T12:29:17;100263.84;;;37.95;43.50
63190;BME280;49286;44.460;26.114;2023-07-13T12:31:48;100244.22;;;37.84;44.32
63190;BME280;49286;44.460;26.114;2023-07-13T12:34:16;100192.59;;;37.41;44.29
63190;BME280;49286;44.460;26.114;2023-07-13T12:39:18;100260.16;;;38.11;43.85
63190;BME280;49286;44.460;26.114;2023-07-13T12:41:44;100257.94;;;37.61;44.66
63190;BME280;49286;44.460;26.114;2023-07-13T12:44:15;100200.69;;;37.34;45.34
63190;BME280;49286;44.460;26.114;2023-07-13T12:47:05;100186.75;;;37.21;43.56
63190;BME280;49286;44.460;26.114;2023-07-13T12:49:32;100259.22;;;36.53;45.70
63190;BME280;49286;44.460;26.114;2023-07-13T12:52:02;100249.09;;;36.86;45.00
63190;BME280;49286;44.460;26.114;2023-07-13T12:54:29;100251.59;;;37.21;45.29
63190;BME280;49286;44.460;26.114;2023-07-13T12:56:57;100201.06;;;36.84;45.02
63190;BME280;49286;44.460;26.114;2023-07-13T12:59:25;100256.41;;;36.94;46.04
63190;BME280;49286;44.460;26.114;2023-07-13T13:01:53;100270.50;;;36.66;47.81
63190;BME280;49286;44.460;26.114;2023-07-13T13:04:19;100244.84;;;36.84;46.70
63190;BME280;49286;44.460;26.114;2023-07-13T13:06:49;100245.56;;;36.61;46.90
63190;BME280;49286;44.460;26.114;2023-07-13T13:09:16;100232.75;;;36.37;45.04